createdAt,value
2018-11-05T00:01:11.485Z,21.00
2018-11-05T00:03:15.184Z,20.10
2018-11-05T00:05:18.814Z,21.00
2018-11-05T00:07:22.429Z,21.20
2018-11-05T00:09:25.928Z,21.67
2018-11-05T00:11:29.491Z,21.87
2018-11-05T00:13:33.018Z,20.07
2018-11-05T00:15:36.546Z,20.30
2018-11-05T00:17:40.238Z,21.23
2018-11-05T00:19:43.823Z,20.10
2018-11-05T00:21:47.481Z,19.07
2018-11-05T00:23:51.024Z,20.33
2018-11-05T00:25:54.585Z,20.63
2018-11-05T00:27:58.138Z,19.47
2018-11-05T00:30:01.713Z,20.20
2018-11-05T00:32:05.314Z,19.33
2018-11-05T00:34:08.921Z,19.63
2018-11-05T00:36:12.501Z,21.17
2018-11-05T00:38:16.096Z,19.70
2018-11-05T00:40:19.687Z,20.70
2018-11-05T00:42:23.601Z,19.27
2018-11-05T00:44:27.200Z,19.53
2018-11-05T00:46:30.792Z,20.60
2018-11-05T00:48:34.333Z,20.80
2018-11-05T00:50:37.908Z,20.63
2018-11-05T00:52:41.430Z,21.03
2018-11-05T00:54:45.003Z,22.37
2018-11-05T00:56:48.580Z,21.50
2018-11-05T00:58:52.133Z,22.93
2018-11-05T01:00:55.675Z,21.93
2018-11-05T01:02:59.226Z,22.43
2018-11-05T01:05:02.779Z,21.17
2018-11-05T01:07:06.432Z,21.43
2018-11-05T01:09:10.076Z,22.73
2018-11-05T01:11:13.610Z,20.70
2018-11-05T01:13:17.283Z,22.33
2018-11-05T01:15:20.820Z,20.90
2018-11-05T01:17:24.400Z,22.53
2018-11-05T01:19:27.965Z,20.30
2018-11-05T01:21:31.560Z,21.37
2018-11-05T01:23:35.723Z,22.60
2018-11-05T01:25:39.267Z,22.20
2018-11-05T01:27:42.788Z,22.47
2018-11-05T01:29:46.313Z,22.10
2018-11-05T01:31:49.910Z,21.03
2018-11-05T01:33:53.475Z,20.53
2018-11-05T01:35:57.044Z,20.07
2018-11-05T01:38:00.576Z,22.17
2018-11-05T01:40:05.023Z,21.07
2018-11-05T01:42:08.955Z,20.23
2018-11-05T01:44:12.710Z,20.47
2018-11-05T01:46:16.283Z,20.13
2018-11-05T01:48:19.883Z,19.23
2018-11-05T01:50:24.143Z,20.83
2018-11-05T01:52:28.151Z,21.53
2018-11-05T01:54:31.749Z,20.40
2018-11-05T01:56:35.305Z,21.90
2018-11-05T01:58:38.916Z,20.70
2018-11-05T02:00:42.476Z,21.10
2018-11-05T02:02:47.237Z,20.77
2018-11-05T02:04:50.788Z,20.80
2018-11-05T02:06:54.347Z,21.27
2018-11-05T02:08:57.880Z,20.70
2018-11-05T02:11:01.471Z,20.97
2018-11-05T02:13:04.980Z,20.90
2018-11-05T02:15:08.986Z,21.00
2018-11-05T02:17:12.832Z,21.33
2018-11-05T02:19:16.407Z,21.67
2018-11-05T02:21:20.004Z,21.63
2018-11-05T02:23:23.541Z,21.27
2018-11-05T02:25:27.080Z,21.07
2018-11-05T02:27:30.685Z,21.27
2018-11-05T02:29:34.239Z,22.17
2018-11-05T02:31:37.833Z,21.60
2018-11-05T02:33:41.476Z,20.87
2018-11-05T02:35:45.051Z,21.53
2018-11-05T02:37:48.986Z,22.67
2018-11-05T02:39:52.557Z,22.17
2018-11-05T02:41:56.157Z,20.93
2018-11-05T02:43:59.684Z,22.30
2018-11-05T02:46:03.250Z,22.60
2018-11-05T02:48:06.819Z,22.63
2018-11-05T02:50:11.559Z,22.20
2018-11-05T02:52:15.195Z,23.23
2018-11-05T02:54:18.719Z,23.00
2018-11-05T02:56:22.300Z,22.83
2018-11-05T02:58:27.512Z,22.73
2018-11-05T03:00:31.048Z,23.07
2018-11-05T03:02:34.626Z,21.97
2018-11-05T03:04:38.224Z,22.90
2018-11-05T03:06:41.841Z,23.13
2018-11-05T03:08:45.365Z,23.80
2018-11-05T03:10:48.884Z,23.37
2018-11-05T03:12:52.410Z,23.87
2018-11-05T03:14:55.948Z,22.93
2018-11-05T03:16:59.457Z,23.90
2018-11-05T03:19:03.037Z,25.03
2018-11-05T03:21:06.940Z,25.83
2018-11-05T03:23:10.505Z,24.23
2018-11-05T03:25:14.430Z,24.83
2018-11-05T03:27:17.990Z,23.57
2018-11-05T03:29:21.970Z,24.70
2018-11-05T03:31:25.508Z,25.07
2018-11-05T03:33:29.103Z,25.20
2018-11-05T03:35:32.755Z,24.33
2018-11-05T03:37:36.486Z,25.80
2018-11-05T03:39:39.994Z,26.93
2018-11-05T03:41:43.776Z,23.83
2018-11-05T03:43:47.337Z,25.70
2018-11-05T03:45:50.875Z,25.07
2018-11-05T03:47:54.415Z,27.00
2018-11-05T03:49:57.950Z,26.97
2018-11-05T03:52:01.549Z,26.00
2018-11-05T03:54:06.230Z,25.90
2018-11-05T03:56:09.819Z,27.63
2018-11-05T03:58:13.551Z,26.17
2018-11-05T04:00:18.417Z,26.83
2018-11-05T04:02:21.993Z,26.23
2018-11-05T04:04:25.531Z,26.03
2018-11-05T04:06:29.072Z,25.93
2018-11-05T04:08:32.685Z,24.93
2018-11-05T04:10:36.255Z,25.33
2018-11-05T04:12:39.821Z,25.40
2018-11-05T04:14:43.371Z,26.13
2018-11-05T04:16:46.923Z,27.10
2018-11-05T04:18:50.444Z,26.33
2018-11-05T04:20:54.008Z,26.57
2018-11-05T04:22:57.560Z,27.07
2018-11-05T04:25:01.113Z,26.13
2018-11-05T04:27:05.321Z,26.30
2018-11-05T04:29:09.234Z,25.33
2018-11-05T04:31:12.767Z,27.33
2018-11-05T04:33:16.405Z,26.13
2018-11-05T04:35:19.962Z,27.37
2018-11-05T04:37:23.499Z,27.10
2018-11-05T04:39:27.098Z,27.27
2018-11-05T04:41:30.676Z,26.33
2018-11-05T04:43:34.222Z,27.77
2018-11-05T04:45:37.789Z,26.87
2018-11-05T04:47:42.141Z,27.27
2018-11-05T04:49:45.703Z,28.87
2018-11-05T04:51:49.284Z,26.90
2018-11-05T04:53:52.843Z,26.13
2018-11-05T04:55:56.354Z,26.13
2018-11-05T04:57:59.929Z,26.50
2018-11-05T05:00:11.368Z,26.17
2018-11-05T05:02:15.635Z,27.47
2018-11-05T05:04:19.206Z,26.47
2018-11-05T05:06:22.759Z,27.50
2018-11-05T05:08:26.353Z,27.03
2018-11-05T05:10:29.927Z,26.37
2018-11-05T05:12:33.490Z,26.63
2018-11-05T05:14:37.040Z,26.00
2018-11-05T05:16:40.611Z,26.83
2018-11-05T05:18:44.212Z,25.53
2018-11-05T05:20:47.778Z,27.53
2018-11-05T05:22:51.430Z,26.77
2018-11-05T05:24:55.097Z,27.23
2018-11-05T05:26:58.633Z,26.60
2018-11-05T05:29:02.185Z,26.40
2018-11-05T05:31:06.057Z,26.67
2018-11-05T05:33:09.728Z,26.07
2018-11-05T05:35:13.413Z,28.07
2018-11-05T05:37:17.440Z,25.60
2018-11-05T05:39:21.836Z,25.83
2018-11-05T05:41:25.561Z,24.67
2018-11-05T05:43:32.249Z,25.13
2018-11-05T05:45:38.376Z,25.47
2018-11-05T05:47:47.062Z,24.37
2018-11-05T05:49:53.693Z,23.87
2018-11-05T05:52:01.562Z,24.00
2018-11-05T05:54:08.016Z,24.47
2018-11-05T05:56:14.750Z,22.90
2018-11-05T05:58:20.300Z,23.57
2018-11-05T06:00:25.523Z,23.70
2018-11-05T06:02:33.271Z,24.67
2018-11-05T06:04:36.877Z,24.30
2018-11-05T06:06:40.650Z,23.43
2018-11-05T06:08:44.257Z,23.00
2018-11-05T06:10:47.822Z,23.30
2018-11-05T06:12:52.248Z,21.90
2018-11-05T06:14:55.881Z,22.17
2018-11-05T06:16:59.420Z,22.03
2018-11-05T06:19:03.157Z,21.40
2018-11-05T06:21:06.742Z,21.53
2018-11-05T06:23:10.731Z,19.83
2018-11-05T06:25:14.439Z,22.23
2018-11-05T06:27:18.097Z,20.77
2018-11-05T06:29:21.743Z,22.00
2018-11-05T06:31:25.285Z,20.47
2018-11-05T06:33:30.366Z,20.63
2018-11-05T06:35:33.949Z,21.80
2018-11-05T06:37:37.665Z,21.57
2018-11-05T06:39:41.190Z,21.03
2018-11-05T06:41:44.822Z,20.43
2018-11-05T06:43:49.344Z,20.27
2018-11-05T06:45:52.990Z,21.33
2018-11-05T06:47:57.839Z,20.27
2018-11-05T06:50:01.950Z,20.80
2018-11-05T06:52:05.661Z,21.37
2018-11-05T06:54:09.451Z,19.17
2018-11-05T06:56:13.548Z,19.80
2018-11-05T06:58:23.331Z,22.33
2018-11-05T07:00:28.960Z,20.47
2018-11-05T07:02:34.487Z,19.33
2018-11-05T07:04:39.256Z,20.10
2018-11-05T07:06:47.253Z,19.60
2018-11-05T07:08:54.416Z,18.93
2018-11-05T07:10:59.189Z,20.13
2018-11-05T07:13:05.442Z,19.50
2018-11-05T07:15:11.444Z,20.70
2018-11-05T07:17:15.812Z,20.13
2018-11-05T07:19:20.739Z,19.77
2018-11-05T07:21:24.616Z,20.50
2018-11-05T07:23:31.149Z,20.17
2018-11-05T07:25:38.769Z,19.57
2018-11-05T07:27:49.628Z,20.97
2018-11-05T07:29:53.461Z,20.47
2018-11-05T07:32:03.354Z,19.97
2018-11-05T07:34:07.578Z,21.37
2018-11-05T07:36:15.903Z,19.83
2018-11-05T07:38:21.492Z,19.77
2018-11-05T07:40:25.322Z,21.63
2018-11-05T07:42:29.089Z,20.67
2018-11-05T07:44:33.380Z,20.30
2018-11-05T07:46:37.256Z,19.93
2018-11-05T07:48:41.676Z,19.47
2018-11-05T07:50:45.357Z,18.57
2018-11-05T07:52:49.960Z,20.23
2018-11-05T07:54:54.109Z,19.33
2018-11-05T07:56:58.369Z,19.47
2018-11-05T07:59:05.699Z,18.80
2018-11-05T08:01:09.704Z,20.23
2018-11-05T08:03:13.407Z,20.03
2018-11-05T08:05:17.953Z,19.83
2018-11-05T08:07:21.594Z,21.30
2018-11-05T08:09:28.246Z,19.53
2018-11-05T08:11:31.916Z,20.07
2018-11-05T08:13:35.575Z,20.03
2018-11-05T08:15:39.313Z,20.40
2018-11-05T08:17:44.354Z,19.50
2018-11-05T08:19:49.564Z,18.80
2018-11-05T08:21:53.525Z,18.97
2018-11-05T08:23:57.772Z,19.00
2018-11-05T08:26:01.378Z,19.10
2018-11-05T08:28:05.205Z,20.83
2018-11-05T08:30:12.556Z,18.23
2018-11-05T08:32:16.305Z,19.40
2018-11-05T08:34:20.046Z,18.77
2018-11-05T08:36:23.715Z,19.97
2018-11-05T08:38:27.342Z,20.50
2018-11-05T08:40:30.856Z,19.97
2018-11-05T08:42:34.437Z,20.83
2018-11-05T08:44:38.212Z,18.77
2018-11-05T08:46:41.805Z,19.73
2018-11-05T08:48:45.552Z,18.83
2018-11-05T08:50:49.607Z,20.03
2018-11-05T08:52:54.440Z,20.53
2018-11-05T08:54:58.069Z,21.37
2018-11-05T08:57:02.404Z,19.43
2018-11-05T08:59:07.963Z,19.67
2018-11-05T09:01:18.438Z,18.43
2018-11-05T09:03:22.114Z,18.33
2018-11-05T09:05:25.818Z,19.27
2018-11-05T09:07:29.510Z,18.73
2018-11-05T09:09:33.428Z,18.53
2018-11-05T09:11:38.502Z,18.90
2018-11-05T09:13:42.431Z,18.30
2018-11-05T09:15:47.061Z,19.07
2018-11-05T09:17:50.828Z,19.20
2018-11-05T09:19:54.647Z,19.17
2018-11-05T09:21:58.427Z,19.13
2018-11-05T09:24:02.113Z,19.80
2018-11-05T09:26:05.792Z,18.87
2018-11-05T09:28:09.589Z,18.67
2018-11-05T09:30:17.120Z,19.47
2018-11-05T09:32:20.843Z,18.07
2018-11-05T09:34:25.038Z,19.10
2018-11-05T09:36:29.153Z,17.87
2018-11-05T09:38:33.025Z,18.20
2018-11-05T09:40:36.651Z,18.37
2018-11-05T09:42:41.192Z,19.27
2018-11-05T09:44:45.087Z,18.93
2018-11-05T09:46:48.781Z,18.43
2018-11-05T09:48:52.520Z,19.10
2018-11-05T09:50:56.183Z,18.17
2018-11-05T09:52:59.858Z,19.27
2018-11-05T09:55:03.762Z,17.90
2018-11-05T09:57:08.263Z,17.40
2018-11-05T09:59:12.095Z,17.80
2018-11-05T10:01:15.845Z,17.23
2018-11-05T10:03:19.991Z,16.97
2018-11-05T10:05:23.843Z,15.67
2018-11-05T10:07:31.214Z,16.00
2018-11-05T10:09:36.455Z,16.37
2018-11-05T10:11:43.819Z,19.27
2018-11-05T10:13:49.743Z,16.03
2018-11-05T10:15:53.554Z,14.77
2018-11-05T10:17:57.207Z,14.43
2018-11-05T10:20:01.192Z,14.70
2018-11-05T10:22:05.038Z,14.33
2018-11-05T10:24:08.768Z,14.50
2018-11-05T10:26:12.446Z,14.63
2018-11-05T10:28:16.112Z,14.10
2018-11-05T10:30:22.165Z,14.67
2018-11-05T10:32:25.996Z,13.53
2018-11-05T10:34:29.728Z,13.90
2018-11-05T10:36:33.632Z,13.23
2018-11-05T10:38:38.431Z,13.93
2018-11-05T10:40:42.106Z,13.10
2018-11-05T10:42:46.480Z,14.70
2018-11-05T10:44:50.248Z,14.03
2018-11-05T10:46:53.852Z,13.97
2018-11-05T10:48:57.505Z,13.33
2018-11-05T10:51:01.371Z,13.60
2018-11-05T10:53:05.537Z,12.40
2018-11-05T10:55:09.670Z,13.00
2018-11-05T10:57:13.351Z,12.83
2018-11-05T10:59:16.973Z,13.47
2018-11-05T11:01:25.918Z,12.17
2018-11-05T11:03:36.931Z,12.50
2018-11-05T11:05:41.445Z,12.10
2018-11-05T11:07:45.251Z,12.07
2018-11-05T11:09:49.097Z,12.47
2018-11-05T11:11:53.984Z,13.37
2018-11-05T11:13:57.520Z,11.67
2018-11-05T11:16:01.479Z,12.10
2018-11-05T11:18:05.147Z,12.23
2018-11-05T11:20:10.826Z,11.93
2018-11-05T11:22:15.069Z,11.40
2018-11-05T11:24:19.354Z,13.73
2018-11-05T11:26:22.954Z,12.10
2018-11-05T11:28:27.386Z,12.77
2018-11-05T11:30:31.217Z,12.23
2018-11-05T11:32:34.835Z,12.27
2018-11-05T11:34:39.379Z,12.73
2018-11-05T11:36:43.183Z,11.60
2018-11-05T11:38:46.836Z,12.93
2018-11-05T11:40:50.477Z,11.13
2018-11-05T11:42:54.587Z,12.13
2018-11-05T11:44:58.814Z,11.30
2018-11-05T11:47:02.543Z,11.17
2018-11-05T11:49:06.659Z,11.60
2018-11-05T11:51:10.216Z,12.53
2018-11-05T11:53:15.644Z,11.43
2018-11-05T11:55:21.255Z,12.47
2018-11-05T11:57:25.960Z,12.27
2018-11-05T11:59:29.709Z,11.63
2018-11-05T12:01:37.645Z,11.87
2018-11-05T12:03:41.315Z,11.97
2018-11-05T12:05:45.579Z,12.20
2018-11-05T12:07:50.289Z,12.10
2018-11-05T12:09:54.739Z,13.03
2018-11-05T12:11:58.379Z,11.67
2018-11-05T12:14:02.569Z,12.30
2018-11-05T12:16:07.624Z,11.80
2018-11-05T12:18:13.046Z,11.03
2018-11-05T12:20:18.325Z,11.77
2018-11-05T12:22:21.972Z,11.70
2018-11-05T12:24:25.647Z,11.50
2018-11-05T12:26:29.671Z,10.67
2018-11-05T12:28:33.540Z,11.47
2018-11-05T12:30:37.358Z,11.17
2018-11-05T12:32:41.328Z,10.93
2018-11-05T12:34:45.085Z,11.23
2018-11-05T12:36:48.846Z,9.77
2018-11-05T12:38:53.223Z,11.57
2018-11-05T12:40:56.918Z,10.63
2018-11-05T12:43:00.983Z,10.43
2018-11-05T12:45:05.011Z,10.60
2018-11-05T12:47:09.930Z,10.33
2018-11-05T12:49:13.877Z,10.97
2018-11-05T12:51:18.208Z,10.70
2018-11-05T12:53:21.971Z,9.97
2018-11-05T12:55:26.575Z,9.80
2018-11-05T12:57:30.234Z,10.03
2018-11-05T12:59:33.914Z,9.47
2018-11-05T13:01:37.694Z,9.33
2018-11-05T13:03:41.265Z,9.07
2018-11-05T13:05:45.024Z,8.80
2018-11-05T13:07:49.594Z,9.73
2018-11-05T13:09:53.313Z,8.73
2018-11-05T13:11:57.040Z,8.80
2018-11-05T13:14:00.657Z,9.80
2018-11-05T13:16:04.338Z,9.80
2018-11-05T13:18:08.323Z,9.40
2018-11-05T13:20:25.164Z,9.03
2018-11-05T13:22:31.953Z,9.87
2018-11-05T13:24:36.603Z,9.40
2018-11-05T13:26:41.201Z,9.83
2018-11-05T13:28:45.975Z,9.37
2018-11-05T13:30:50.133Z,8.20
2018-11-05T13:32:54.561Z,9.67
2018-11-05T13:34:58.256Z,9.20
2018-11-05T13:37:02.408Z,9.07
2018-11-05T13:39:08.854Z,9.13
2018-11-05T13:41:13.412Z,9.87
2018-11-05T13:43:17.168Z,9.93
2018-11-05T13:45:21.406Z,9.80
2018-11-05T13:47:26.003Z,9.17
2018-11-05T13:49:30.764Z,8.93
2018-11-05T13:51:35.482Z,8.60
2018-11-05T13:53:40.364Z,8.70
2018-11-05T13:55:44.137Z,8.73
2018-11-05T13:57:49.282Z,8.87
2018-11-05T13:59:53.518Z,9.20
2018-11-05T14:01:57.178Z,8.90
2018-11-05T14:04:00.882Z,8.40
2018-11-05T14:06:05.414Z,9.47
2018-11-05T14:08:10.117Z,9.70
2018-11-05T14:10:17.260Z,9.73
2018-11-05T14:12:21.448Z,9.33
2018-11-05T14:14:25.214Z,9.70
2018-11-05T14:16:28.791Z,8.90
2018-11-05T14:18:32.720Z,8.07
2018-11-05T14:20:36.915Z,9.33
2018-11-05T14:22:41.472Z,9.10
2018-11-05T14:24:45.190Z,9.23
2018-11-05T14:26:49.407Z,8.37
2018-11-05T14:28:53.769Z,9.37
2018-11-05T14:30:57.918Z,9.20
2018-11-05T14:33:02.652Z,8.67
2018-11-05T14:35:07.429Z,8.87
2018-11-05T14:37:12.151Z,7.40
2018-11-05T14:39:15.909Z,8.73
2018-11-05T14:41:19.704Z,8.90
2018-11-05T14:43:23.447Z,9.40
2018-11-05T14:45:27.429Z,8.70
2018-11-05T14:47:31.458Z,9.47
2018-11-05T14:49:35.875Z,9.50
2018-11-05T14:51:39.621Z,8.60
2018-11-05T14:53:44.719Z,8.80
2018-11-05T14:55:48.327Z,9.63
2018-11-05T14:57:52.464Z,9.80
2018-11-05T14:59:57.367Z,11.23
2018-11-05T15:02:06.573Z,11.12
2018-11-05T15:04:10.201Z,9.07
2018-11-05T15:06:13.817Z,9.60
2018-11-05T15:08:17.449Z,8.57
2018-11-05T15:10:22.279Z,8.80
2018-11-05T15:12:26.181Z,9.17
2018-11-05T15:14:29.786Z,9.83
2018-11-05T15:16:34.113Z,11.03
2018-11-05T15:18:38.926Z,11.03
2018-11-05T15:20:42.629Z,11.40
2018-11-05T15:22:46.488Z,11.10
2018-11-05T15:24:50.073Z,10.70
2018-11-05T15:26:53.693Z,12.60
2018-11-05T15:28:57.452Z,12.57
2018-11-05T15:31:01.063Z,12.13
2018-11-05T15:33:04.836Z,12.63
2018-11-05T15:35:08.615Z,12.63
2018-11-05T15:37:12.345Z,13.93
2018-11-05T15:39:15.888Z,14.23
2018-11-05T15:41:19.463Z,13.77
2018-11-05T15:43:23.053Z,14.50
2018-11-05T15:45:26.552Z,13.70
2018-11-05T15:47:30.123Z,14.33
2018-11-05T15:49:33.684Z,16.20
2018-11-05T15:51:37.377Z,14.57
2018-11-05T15:53:41.193Z,16.50
2018-11-05T15:55:44.719Z,16.47
2018-11-05T15:57:48.321Z,15.73
2018-11-05T15:59:51.893Z,15.77
2018-11-05T16:01:55.406Z,15.93
2018-11-05T16:03:58.988Z,16.63
2018-11-05T16:06:02.533Z,17.30
2018-11-05T16:08:06.140Z,17.03
2018-11-05T16:10:10.113Z,17.57
2018-11-05T16:12:13.681Z,17.43
2018-11-05T16:14:17.272Z,17.40
2018-11-05T16:16:20.890Z,16.23
2018-11-05T16:18:24.428Z,17.87
2018-11-05T16:20:27.991Z,15.83
2018-11-05T16:22:31.772Z,16.70
2018-11-05T16:24:35.474Z,17.17
2018-11-05T16:26:39.156Z,17.17
2018-11-05T16:28:42.792Z,18.17
2018-11-05T16:30:46.398Z,17.87
2018-11-05T16:32:50.701Z,18.63
2018-11-05T16:34:54.736Z,18.03
2018-11-05T16:36:58.441Z,18.93
2018-11-05T16:39:02.119Z,18.40
2018-11-05T16:41:05.905Z,19.07
2018-11-05T16:43:09.457Z,18.03
2018-11-05T16:45:13.012Z,18.80
2018-11-05T16:47:16.565Z,17.87
2018-11-05T16:49:20.169Z,18.50
2018-11-05T16:51:23.740Z,17.03
2018-11-05T16:53:27.301Z,19.83
2018-11-05T16:55:30.897Z,17.20
2018-11-05T16:57:34.451Z,18.17
2018-11-05T16:59:38.380Z,18.37
2018-11-05T17:01:42.330Z,20.07
2018-11-05T17:03:45.709Z,21.03
2018-11-05T17:05:49.256Z,19.20
2018-11-05T17:07:52.820Z,18.60
2018-11-05T17:09:56.424Z,17.93
2018-11-05T17:11:59.986Z,18.37
2018-11-05T17:14:04.010Z,18.27
2018-11-05T17:16:07.816Z,17.90
2018-11-05T17:18:11.385Z,18.10
2018-11-05T17:20:16.884Z,17.83
2018-11-05T17:22:20.432Z,17.90
2018-11-05T17:24:24.048Z,18.53
2018-11-05T17:26:27.734Z,17.27
2018-11-05T17:28:31.340Z,15.97
2018-11-05T17:30:34.908Z,17.47
2018-11-05T17:32:38.581Z,17.53
2018-11-05T17:34:42.141Z,18.30
2018-11-05T17:36:45.686Z,18.83
2018-11-05T17:38:49.230Z,18.03
2018-11-05T17:40:52.839Z,17.57
2018-11-05T17:42:56.395Z,17.53
2018-11-05T17:45:00.027Z,17.80
2018-11-05T17:47:03.627Z,19.60
2018-11-05T17:49:08.194Z,16.57
2018-11-05T17:51:11.831Z,17.60
2018-11-05T17:53:15.364Z,15.07
2018-11-05T17:55:19.659Z,16.87
2018-11-05T17:57:23.176Z,18.37
2018-11-05T17:59:26.731Z,18.37
2018-11-05T18:01:30.282Z,17.83
2018-11-05T18:03:33.832Z,17.07
2018-11-05T18:05:37.418Z,15.70
2018-11-05T18:07:40.995Z,14.77
2018-11-05T18:09:44.571Z,15.20
2018-11-05T18:11:48.152Z,14.20
2018-11-05T18:13:52.092Z,15.30
2018-11-05T18:15:55.660Z,19.63
2018-11-05T18:17:59.173Z,19.17
2018-11-05T18:20:02.758Z,19.47
2018-11-05T18:22:06.950Z,17.30
2018-11-05T18:24:10.794Z,18.73
2018-11-05T18:26:15.388Z,18.50
2018-11-05T18:28:19.261Z,18.02
2018-11-05T18:30:26.039Z,15.72
2018-11-05T18:32:29.885Z,16.37
2018-11-05T18:34:33.393Z,16.10
2018-11-05T18:36:36.971Z,17.13
2018-11-05T18:38:40.820Z,17.20
2018-11-05T18:40:44.724Z,18.00
2018-11-05T18:42:48.622Z,16.97
2018-11-05T18:44:52.689Z,16.42
2018-11-05T18:46:56.512Z,16.02
2018-11-05T18:49:00.322Z,16.50
2018-11-05T18:51:04.720Z,15.58
2018-11-05T18:53:08.596Z,16.57
2018-11-05T18:55:13.799Z,19.15
2018-11-05T18:57:17.604Z,16.93
2018-11-05T18:59:21.452Z,20.92
2018-11-05T19:01:25.330Z,18.30
2018-11-05T19:03:29.431Z,21.20
2018-11-05T19:05:36.198Z,21.27
2018-11-05T19:07:40.048Z,21.42
2018-11-05T19:09:43.872Z,24.47
2018-11-05T19:11:48.134Z,22.60
2018-11-05T19:13:52.045Z,20.50
2018-11-05T19:15:56.617Z,20.43
2018-11-05T19:18:00.624Z,18.87
2018-11-05T19:20:05.144Z,18.20
2018-11-05T19:22:08.998Z,19.25
2018-11-05T19:24:13.605Z,17.75
2018-11-05T19:26:17.532Z,18.12
2018-11-05T19:28:21.388Z,19.10
2018-11-05T19:30:26.657Z,19.80
2018-11-05T19:32:30.596Z,21.25
2018-11-05T19:34:34.416Z,21.02
2018-11-05T19:36:38.312Z,21.37
2018-11-05T19:38:48.691Z,20.80
2018-11-05T19:40:52.528Z,21.42
2018-11-05T19:42:56.399Z,23.50
2018-11-05T19:45:00.468Z,22.27
2018-11-05T19:47:04.413Z,22.07
2018-11-05T19:49:08.257Z,20.25
2018-11-05T19:51:12.108Z,21.55
2018-11-05T19:53:15.975Z,22.55
2018-11-05T19:55:20.296Z,21.93
2018-11-05T19:57:24.181Z,21.17
2018-11-05T19:59:28.925Z,24.70
2018-11-05T20:01:32.806Z,21.75
2018-11-05T20:03:36.670Z,21.87
2018-11-05T20:05:41.659Z,21.93
2018-11-05T20:07:46.062Z,23.65
2018-11-05T20:09:49.926Z,22.98
2018-11-05T20:11:53.898Z,21.42
2018-11-05T20:13:57.773Z,21.48
2018-11-05T20:16:01.606Z,19.50
2018-11-05T20:18:05.694Z,19.73
2018-11-05T20:20:11.881Z,17.65
2018-11-05T20:22:15.786Z,18.23
2018-11-05T20:24:19.828Z,18.32
2018-11-05T20:26:23.665Z,20.62
2018-11-05T20:28:27.945Z,19.20
2018-11-05T20:30:31.984Z,18.73
2018-11-05T20:32:36.451Z,19.50
2018-11-05T20:34:40.111Z,17.02
2018-11-05T20:36:44.063Z,20.15
2018-11-05T20:38:47.964Z,18.55
2018-11-05T20:40:51.947Z,17.40
2018-11-05T20:42:55.980Z,17.77
2018-11-05T20:44:59.861Z,20.15
2018-11-05T20:47:03.745Z,21.85
2018-11-05T20:49:07.588Z,21.45
2018-11-05T20:51:11.472Z,20.60
2018-11-05T20:53:15.379Z,20.45
2018-11-05T20:55:19.409Z,19.40
2018-11-05T20:57:23.279Z,19.23
2018-11-05T20:59:27.124Z,19.07
2018-11-05T21:01:31.001Z,20.40
2018-11-05T21:03:34.826Z,21.57
2018-11-05T21:05:38.664Z,20.45
2018-11-05T21:07:43.541Z,21.17
2018-11-05T21:09:47.402Z,21.00
2018-11-05T21:11:51.341Z,23.45
2018-11-05T21:13:55.211Z,24.05
2018-11-05T21:15:59.045Z,25.12
2018-11-05T21:18:03.008Z,24.55
2018-11-05T21:20:06.965Z,22.87
2018-11-05T21:22:12.466Z,21.00
2018-11-05T21:24:16.686Z,21.73
2018-11-05T21:26:20.580Z,22.15
2018-11-05T21:28:30.945Z,22.95
2018-11-05T21:30:34.841Z,21.40
2018-11-05T21:32:39.015Z,19.77
2018-11-05T21:34:42.880Z,20.08
2018-11-05T21:36:46.977Z,19.80
2018-11-05T21:38:50.848Z,19.50
2018-11-05T21:40:54.737Z,21.68
2018-11-05T21:42:58.595Z,18.70
2018-11-05T21:45:03.142Z,19.40
2018-11-05T21:47:06.983Z,19.60
2018-11-05T21:49:10.820Z,21.25
2018-11-05T21:51:14.647Z,18.17
2018-11-05T21:53:18.519Z,20.60
2018-11-05T21:55:22.410Z,20.92
2018-11-05T21:57:26.227Z,19.82
2018-11-05T21:59:30.081Z,20.27
2018-11-05T22:01:34.279Z,19.00
2018-11-05T22:03:38.152Z,17.75
2018-11-05T22:05:42.000Z,18.92
2018-11-05T22:07:46.329Z,19.55
2018-11-05T22:09:50.220Z,18.37
2018-11-05T22:11:54.153Z,18.32
2018-11-05T22:13:57.988Z,18.52
2018-11-05T22:16:01.855Z,19.48
2018-11-05T22:18:06.067Z,19.60
2018-11-05T22:20:10.673Z,18.48
2018-11-05T22:22:14.522Z,17.85
2018-11-05T22:24:18.365Z,18.27
2018-11-05T22:26:22.220Z,18.67
2018-11-05T22:28:26.060Z,18.37
2018-11-05T22:30:29.886Z,17.67
2018-11-05T22:32:33.765Z,16.90
2018-11-05T22:34:37.605Z,16.55
2018-11-05T22:36:41.472Z,16.50
2018-11-05T22:38:45.358Z,19.10
2018-11-05T22:40:49.216Z,17.98
2018-11-05T22:42:53.115Z,16.87
2018-11-05T22:44:56.932Z,16.48
2018-11-05T22:47:00.785Z,16.85
2018-11-05T22:49:05.240Z,16.82
2018-11-05T22:51:09.063Z,17.17
2018-11-05T22:53:12.903Z,17.77
2018-11-05T22:55:16.761Z,17.10
2018-11-05T22:57:20.665Z,16.55
2018-11-05T22:59:24.507Z,16.77
2018-11-05T23:01:33.587Z,16.55
2018-11-05T23:03:37.475Z,16.07
2018-11-05T23:05:41.307Z,15.95
2018-11-05T23:07:45.108Z,17.02
2018-11-05T23:09:48.972Z,20.00
2018-11-05T23:11:52.820Z,18.82
2018-11-05T23:13:56.703Z,17.82
2018-11-05T23:16:00.544Z,17.98
2018-11-05T23:18:04.438Z,19.30
2018-11-05T23:20:12.672Z,18.52
2018-11-05T23:22:16.569Z,17.65
2018-11-05T23:24:20.472Z,17.27
2018-11-05T23:26:24.423Z,16.12
2018-11-05T23:28:28.290Z,17.65
2018-11-05T23:30:32.143Z,17.35
2018-11-05T23:32:36.246Z,17.05
2018-11-05T23:34:40.111Z,16.17
2018-11-05T23:36:43.949Z,15.40
2018-11-05T23:38:47.780Z,15.00
2018-11-05T23:40:51.687Z,15.72
2018-11-05T23:42:55.994Z,18.52
2018-11-05T23:44:59.862Z,19.37
2018-11-05T23:47:03.717Z,17.57
2018-11-05T23:49:07.568Z,17.07
2018-11-05T23:51:11.405Z,15.65
2018-11-05T23:53:15.233Z,16.97
2018-11-05T23:55:19.103Z,17.17
2018-11-05T23:57:23.507Z,17.70
2018-11-05T23:59:27.381Z,16.05
